createdAt,value
2023-04-17T00:01:55.408Z,3.08
2023-04-17T00:04:23.354Z,3.20
2023-04-17T00:06:53.855Z,2.67
2023-04-17T00:09:21.382Z,3.50
2023-04-17T00:11:52.013Z,2.50
2023-04-17T00:14:19.643Z,3.10
2023-04-17T00:16:47.277Z,2.72
2023-04-17T00:19:14.809Z,3.08
2023-04-17T00:21:45.133Z,2.63
2023-04-17T00:24:15.238Z,3.08
2023-04-17T00:26:45.681Z,3.30
2023-04-17T00:29:13.379Z,3.10
2023-04-17T00:31:40.964Z,3.45
2023-04-17T00:34:08.325Z,3.25
2023-04-17T00:36:35.680Z,3.33
2023-04-17T00:39:02.904Z,2.95
2023-04-17T00:41:30.449Z,3.17
2023-04-17T00:43:57.690Z,3.22
2023-04-17T00:46:25.391Z,3.30
2023-04-17T00:48:52.738Z,3.45
2023-04-17T00:51:20.268Z,3.00
2023-04-17T00:53:48.624Z,3.38
2023-04-17T00:56:16.000Z,2.88
2023-04-17T00:58:43.836Z,3.45
2023-04-17T01:01:11.554Z,3.45
2023-04-17T01:03:38.905Z,3.25
2023-04-17T01:06:06.787Z,3.22
2023-04-17T01:08:42.344Z,3.20
2023-04-17T01:11:12.569Z,3.50
2023-04-17T01:13:50.994Z,2.88
2023-04-17T01:16:20.405Z,3.55
2023-04-17T01:18:48.608Z,3.38
2023-04-17T01:21:16.618Z,2.92
2023-04-17T01:23:46.962Z,3.30
2023-04-17T01:26:20.997Z,3.22
2023-04-17T01:28:57.619Z,3.20
2023-04-17T01:31:27.678Z,3.08
2023-04-17T01:34:01.149Z,3.58
2023-04-17T01:36:28.518Z,3.33
2023-04-17T01:38:55.815Z,3.20
2023-04-17T01:41:24.163Z,3.80
2023-04-17T01:43:51.489Z,3.88
2023-04-17T01:46:18.901Z,4.05
2023-04-17T01:48:46.683Z,3.63
2023-04-17T01:51:15.418Z,3.53
2023-04-17T01:53:42.641Z,4.15
2023-04-17T01:56:09.991Z,3.50
2023-04-17T01:58:37.641Z,3.80
2023-04-17T02:01:05.684Z,4.30
2023-04-17T02:03:33.322Z,4.10
2023-04-17T02:06:00.832Z,4.13
2023-04-17T02:08:29.690Z,3.70
2023-04-17T02:10:59.129Z,3.78
2023-04-17T02:13:26.515Z,4.20
2023-04-17T02:15:53.935Z,3.80
2023-04-17T02:18:21.350Z,3.92
2023-04-17T02:20:48.772Z,3.40
2023-04-17T02:23:16.193Z,3.80
2023-04-17T02:25:43.633Z,3.80
2023-04-17T02:28:10.899Z,3.60
2023-04-17T02:30:38.168Z,3.63
2023-04-17T02:33:05.659Z,3.50
2023-04-17T02:35:34.037Z,3.60
2023-04-17T02:38:01.381Z,3.60
2023-04-17T02:40:28.750Z,3.45
2023-04-17T02:43:01.503Z,3.13
2023-04-17T02:45:29.662Z,3.40
2023-04-17T02:47:57.347Z,3.20
2023-04-17T02:50:24.962Z,3.90
2023-04-17T02:53:02.766Z,3.60
2023-04-17T02:55:30.304Z,2.90
2023-04-17T02:57:57.455Z,3.45
2023-04-17T03:00:26.229Z,3.85
2023-04-17T03:02:53.915Z,3.70
2023-04-17T03:05:23.216Z,3.67
2023-04-17T03:07:52.058Z,3.35
2023-04-17T03:10:19.633Z,3.45
2023-04-17T03:12:47.493Z,3.25
2023-04-17T03:15:14.912Z,3.63
2023-04-17T03:17:42.740Z,3.58
2023-04-17T03:20:10.311Z,3.65
2023-04-17T03:22:37.953Z,3.80
2023-04-17T03:25:09.421Z,3.75
2023-04-17T03:27:46.699Z,3.17
2023-04-17T03:30:15.134Z,3.90
2023-04-17T03:32:46.515Z,3.38
2023-04-17T03:35:13.720Z,3.40
2023-04-17T03:37:44.968Z,3.25
2023-04-17T03:42:43.971Z,2.80
2023-04-17T03:45:11.564Z,3.20
2023-04-17T03:47:39.069Z,3.60
2023-04-17T03:50:07.696Z,3.13
2023-04-17T03:52:40.333Z,2.88
2023-04-17T03:55:08.371Z,2.53
2023-04-17T03:57:35.811Z,3.30
2023-04-17T04:00:06.925Z,3.05
2023-04-17T04:02:46.708Z,3.28
2023-04-17T04:05:18.045Z,3.20
2023-04-17T04:07:45.653Z,3.10
2023-04-17T04:10:18.383Z,2.50
2023-04-17T04:12:45.656Z,2.75
2023-04-17T04:15:14.316Z,2.72
2023-04-17T04:17:42.088Z,3.28
2023-04-17T04:22:37.992Z,2.58
2023-04-17T04:25:07.695Z,2.65
2023-04-17T04:27:49.804Z,3.05
2023-04-17T04:30:25.609Z,3.53
2023-04-17T04:33:01.179Z,3.13
2023-04-17T04:35:30.485Z,2.78
2023-04-17T04:38:02.312Z,3.05
2023-04-17T04:40:38.178Z,3.65
2023-04-17T04:43:07.174Z,3.00
2023-04-17T04:45:41.737Z,3.08
2023-04-17T04:48:09.005Z,3.20
2023-04-17T04:50:36.279Z,2.88
2023-04-17T04:53:03.450Z,3.28
2023-04-17T04:55:45.144Z,3.00
2023-04-17T04:58:13.181Z,3.65
2023-04-17T05:00:40.630Z,2.92
2023-04-17T05:03:14.766Z,6.65
2023-04-17T05:05:43.320Z,7.88
2023-04-17T05:08:13.911Z,6.93
2023-04-17T05:10:41.698Z,4.40
2023-04-17T05:13:10.288Z,4.28
2023-04-17T05:15:40.054Z,3.55
2023-04-17T05:18:08.086Z,3.22
2023-04-17T05:20:37.715Z,3.28
2023-04-17T05:23:05.996Z,3.67
2023-04-17T05:25:33.303Z,3.60
2023-04-17T05:28:04.139Z,2.80
2023-04-17T05:30:32.589Z,3.40
2023-04-17T05:33:11.530Z,3.10
2023-04-17T05:35:46.872Z,3.90
2023-04-17T05:38:14.293Z,3.92
2023-04-17T05:40:41.690Z,3.63
2023-04-17T05:43:12.453Z,3.40
2023-04-17T05:45:41.749Z,3.85
2023-04-17T05:48:10.993Z,3.35
2023-04-17T05:50:38.251Z,3.60
2023-04-17T05:53:06.942Z,3.40
2023-04-17T05:55:39.883Z,3.22
2023-04-17T06:00:45.600Z,3.80
2023-04-17T06:03:19.178Z,3.78
2023-04-17T06:05:49.179Z,3.83
2023-04-17T06:08:17.256Z,3.70
2023-04-17T06:10:45.984Z,3.88
2023-04-17T06:13:13.578Z,4.28
2023-04-17T06:15:45.423Z,4.47
2023-04-17T06:18:15.973Z,5.00
2023-04-17T06:20:46.032Z,4.82
2023-04-17T06:23:13.515Z,4.70
2023-04-17T06:25:40.816Z,4.03
2023-04-17T06:28:08.179Z,3.90
2023-04-17T06:30:35.715Z,4.43
2023-04-17T06:33:03.891Z,4.25
2023-04-17T06:35:31.555Z,4.13
2023-04-17T06:38:08.998Z,4.07
2023-04-17T06:40:36.586Z,3.97
2023-04-17T06:43:06.205Z,3.65
2023-04-17T06:45:37.871Z,3.92
2023-04-17T06:48:07.239Z,3.50
2023-04-17T06:50:34.524Z,3.33
2023-04-17T06:53:01.792Z,3.33
2023-04-17T06:55:28.943Z,3.55
2023-04-17T06:57:56.196Z,3.05
2023-04-17T07:00:23.741Z,3.40
2023-04-17T07:02:51.504Z,3.50
2023-04-17T07:05:18.826Z,3.28
2023-04-17T07:07:45.983Z,3.55
2023-04-17T07:10:15.673Z,3.88
2023-04-17T07:12:42.892Z,3.13
2023-04-17T07:15:11.192Z,3.28
2023-04-17T07:17:38.448Z,3.90
2023-04-17T07:20:07.954Z,3.42
2023-04-17T07:22:35.623Z,2.85
2023-04-17T07:25:03.166Z,3.20
2023-04-17T07:27:30.439Z,3.20
2023-04-17T07:29:57.653Z,2.97
2023-04-17T07:32:24.921Z,3.58
2023-04-17T07:34:52.857Z,2.72
2023-04-17T07:37:20.138Z,2.95
2023-04-17T07:39:52.788Z,2.30
2023-04-17T07:42:20.131Z,2.30
2023-04-17T07:44:48.565Z,1.75
2023-04-17T07:47:15.825Z,2.10
2023-04-17T07:49:46.525Z,1.63
2023-04-17T07:52:15.389Z,2.22
2023-04-17T07:54:42.583Z,2.75
2023-04-17T07:57:09.729Z,2.40
2023-04-17T07:59:37.045Z,2.25
2023-04-17T08:02:04.286Z,2.92
2023-04-17T08:04:32.982Z,3.22
2023-04-17T08:07:00.533Z,3.65
2023-04-17T08:09:28.613Z,3.78
2023-04-17T08:11:57.953Z,3.67
2023-04-17T08:14:25.849Z,3.78
2023-04-17T08:16:53.126Z,4.63
2023-04-17T08:19:20.622Z,4.00
2023-04-17T08:21:49.513Z,4.85
2023-04-17T08:24:19.713Z,4.10
2023-04-17T08:26:48.003Z,3.38
2023-04-17T08:29:15.859Z,3.67
2023-04-17T08:31:43.308Z,3.30
2023-04-17T08:34:15.115Z,3.75
2023-04-17T08:36:43.097Z,3.28
2023-04-17T08:39:12.286Z,4.18
2023-04-17T08:42:05.318Z,2.92
2023-04-17T08:44:32.497Z,2.40
2023-04-17T08:46:59.707Z,2.40
2023-04-17T08:49:32.022Z,2.30
2023-04-17T08:52:05.901Z,2.30
2023-04-17T08:54:35.194Z,2.00
2023-04-17T08:57:07.039Z,1.73
2023-04-17T08:59:34.383Z,1.70
2023-04-17T09:02:07.506Z,1.92
2023-04-17T09:04:44.544Z,2.20
2023-04-17T09:07:14.408Z,1.90
2023-04-17T09:09:54.511Z,2.30
2023-04-17T09:12:26.152Z,2.17
2023-04-17T09:14:53.589Z,2.25
2023-04-17T09:17:21.652Z,2.47
2023-04-17T09:20:09.241Z,2.20
2023-04-17T09:22:40.218Z,2.40
2023-04-17T09:25:23.132Z,2.35
2023-04-17T09:27:50.508Z,2.30
2023-04-17T09:30:17.646Z,1.85
2023-04-17T09:32:44.947Z,1.80
2023-04-17T09:35:25.960Z,2.00
2023-04-17T09:37:59.375Z,2.13
2023-04-17T09:40:40.752Z,1.80
2023-04-17T09:43:11.185Z,2.00
2023-04-17T09:45:42.446Z,2.13
2023-04-17T09:48:12.689Z,24.55
2023-04-17T09:50:40.354Z,2.25
2023-04-17T09:53:08.705Z,2.63
2023-04-17T09:58:07.893Z,2.08
2023-04-17T10:00:37.724Z,2.65
2023-04-17T10:03:07.317Z,2.72
2023-04-17T10:05:35.755Z,3.03
2023-04-17T10:08:04.232Z,2.67
2023-04-17T10:10:36.239Z,1.92
2023-04-17T10:13:08.486Z,1.83
2023-04-17T10:18:25.282Z,2.17
2023-04-17T10:20:54.234Z,2.30
2023-04-17T10:23:34.017Z,2.33
2023-04-17T10:26:24.799Z,2.30
2023-04-17T10:28:54.116Z,2.03
2023-04-17T10:32:02.472Z,2.85
2023-04-17T10:34:38.173Z,2.35
2023-04-17T10:37:05.378Z,2.03
2023-04-17T10:39:58.585Z,2.10
2023-04-17T10:42:26.627Z,2.60
2023-04-17T10:45:01.505Z,2.00
2023-04-17T10:47:38.945Z,1.98
2023-04-17T10:50:10.140Z,2.00
2023-04-17T10:52:41.976Z,2.10
2023-04-17T10:55:23.493Z,1.92
2023-04-17T10:57:59.276Z,1.33
2023-04-17T11:00:39.621Z,1.20
2023-04-17T11:03:07.766Z,1.65
2023-04-17T11:05:35.843Z,1.10
2023-04-17T11:08:03.319Z,1.50
2023-04-17T11:10:35.362Z,1.38
2023-04-17T11:13:02.632Z,1.13
2023-04-17T11:15:34.162Z,1.85
2023-04-17T11:18:03.423Z,1.40
2023-04-17T11:20:33.135Z,2.00
2023-04-17T11:23:06.244Z,0.90
2023-04-17T11:25:34.776Z,1.50
2023-04-17T11:28:06.490Z,1.52
2023-04-17T11:30:36.521Z,1.58
2023-04-17T11:33:07.647Z,1.50
2023-04-17T11:35:41.078Z,1.70
2023-04-17T11:38:12.733Z,1.60
2023-04-17T11:40:53.183Z,1.38
2023-04-17T11:45:56.512Z,1.50
2023-04-17T11:48:29.338Z,1.45
2023-04-17T11:51:04.022Z,1.42
2023-04-17T11:53:34.445Z,1.20
2023-04-17T11:56:18.684Z,1.35
2023-04-17T11:58:58.018Z,1.60
2023-04-17T12:01:28.926Z,1.30
2023-04-17T12:03:58.609Z,1.50
2023-04-17T12:06:38.916Z,1.00
2023-04-17T12:09:07.079Z,1.40
2023-04-17T12:11:35.794Z,1.45
2023-04-17T12:14:05.403Z,1.77
2023-04-17T12:16:32.706Z,1.67
2023-04-17T12:18:59.882Z,1.50
2023-04-17T12:21:27.029Z,1.63
2023-04-17T12:23:54.221Z,1.80
2023-04-17T12:26:21.571Z,1.90
2023-04-17T12:28:48.706Z,1.50
2023-04-17T12:31:15.911Z,1.98
2023-04-17T12:33:43.097Z,1.60
2023-04-17T12:36:10.702Z,1.80
2023-04-17T12:38:38.023Z,1.52
2023-04-17T12:41:05.303Z,1.70
2023-04-17T12:43:33.520Z,1.70
2023-04-17T12:48:30.784Z,1.77
2023-04-17T12:50:59.493Z,2.10
2023-04-17T12:53:26.628Z,1.98
2023-04-17T12:55:54.088Z,2.13
2023-04-17T12:58:21.359Z,2.10
2023-04-17T13:00:48.670Z,2.90
2023-04-17T13:03:15.965Z,2.35
2023-04-17T13:05:44.336Z,2.53
2023-04-17T13:10:42.874Z,2.80
2023-04-17T13:13:10.553Z,2.72
2023-04-17T13:15:37.787Z,2.50
2023-04-17T13:18:05.309Z,3.30
2023-04-17T13:20:32.624Z,2.70
2023-04-17T13:22:59.856Z,2.95
2023-04-17T13:25:27.026Z,3.28
2023-04-17T13:30:22.990Z,3.03
2023-04-17T13:32:50.428Z,3.42
2023-04-17T13:35:18.099Z,3.55
2023-04-17T13:37:45.272Z,3.63
2023-04-17T13:40:13.164Z,3.70
2023-04-17T13:42:40.848Z,4.03
2023-04-17T13:45:08.785Z,3.08
2023-04-17T13:47:36.255Z,3.30
2023-04-17T13:50:04.007Z,2.80
2023-04-17T13:52:31.267Z,3.35
2023-04-17T13:54:58.590Z,4.22
2023-04-17T13:57:25.799Z,4.05
2023-04-17T13:59:52.965Z,3.13
2023-04-17T14:02:20.273Z,3.65
2023-04-17T14:04:47.746Z,3.40
2023-04-17T14:07:15.446Z,3.20
2023-04-17T14:09:42.716Z,3.80
2023-04-17T14:12:09.910Z,3.42
2023-04-17T14:14:37.213Z,3.60
2023-04-17T14:17:04.426Z,3.58
2023-04-17T14:19:31.892Z,3.53
2023-04-17T14:21:59.600Z,3.45
2023-04-17T14:24:26.726Z,3.35
2023-04-17T14:26:53.947Z,3.78
2023-04-17T14:29:21.344Z,4.75
2023-04-17T14:31:48.745Z,4.38
2023-04-17T14:34:16.066Z,4.55
2023-04-17T14:36:43.799Z,4.07
2023-04-17T14:39:11.639Z,4.38
2023-04-17T14:41:39.146Z,4.75
2023-04-17T14:44:06.514Z,4.38
2023-04-17T14:46:33.780Z,4.72
2023-04-17T14:49:01.012Z,4.53
2023-04-17T14:51:28.395Z,3.95
2023-04-17T14:53:55.770Z,4.60
2023-04-17T14:56:23.022Z,4.25
2023-04-17T14:58:50.353Z,3.85
2023-04-17T15:01:17.627Z,4.30
2023-04-17T15:03:47.895Z,3.40
2023-04-17T15:06:16.903Z,4.18
2023-04-17T15:08:45.957Z,3.75
2023-04-17T15:11:13.226Z,3.53
2023-04-17T15:13:40.617Z,3.50
2023-04-17T15:16:10.621Z,3.63
2023-04-17T15:18:39.396Z,4.10
2023-04-17T15:21:07.192Z,3.88
2023-04-17T15:23:35.290Z,4.18
2023-04-17T15:26:02.662Z,4.05
2023-04-17T15:28:29.863Z,3.80
2023-04-17T15:30:57.070Z,4.43
2023-04-17T15:33:24.252Z,4.32
2023-04-17T15:35:59.847Z,3.97
2023-04-17T15:38:27.877Z,4.43
2023-04-17T15:40:55.557Z,3.75
2023-04-17T15:43:22.981Z,3.95
2023-04-17T15:45:51.770Z,3.22
2023-04-17T15:48:19.242Z,3.28
2023-04-17T15:50:46.428Z,3.50
2023-04-17T15:53:13.580Z,3.25
2023-04-17T15:55:41.212Z,3.22
2023-04-17T15:58:08.541Z,3.20
2023-04-17T16:00:35.750Z,3.42
2023-04-17T16:03:03.413Z,2.95
2023-04-17T16:05:32.434Z,3.30
2023-04-17T16:08:01.424Z,3.00
2023-04-17T16:10:28.725Z,3.00
2023-04-17T16:12:55.888Z,3.10
2023-04-17T16:15:23.259Z,3.47
2023-04-17T16:17:50.478Z,3.30
2023-04-17T16:20:17.665Z,3.42
2023-04-17T16:22:44.806Z,3.47
2023-04-17T16:25:12.176Z,3.42
2023-04-17T16:27:40.313Z,3.47
2023-04-17T16:30:10.394Z,2.88
2023-04-17T16:32:37.754Z,3.15
2023-04-17T16:35:06.235Z,3.25
2023-04-17T16:37:33.415Z,2.85
2023-04-17T16:40:04.612Z,3.03
2023-04-17T16:42:32.673Z,2.65
2023-04-17T16:45:00.186Z,3.00
2023-04-17T16:47:29.833Z,2.20
2023-04-17T16:49:57.403Z,2.70
2023-04-17T16:52:24.640Z,2.40
2023-04-17T16:54:51.777Z,1.83
2023-04-17T16:57:18.949Z,1.85
2023-04-17T16:59:46.087Z,2.05
2023-04-17T17:02:14.010Z,2.00
2023-04-17T17:07:09.203Z,2.85
2023-04-17T17:09:36.397Z,2.20
2023-04-17T17:12:03.816Z,2.55
2023-04-17T17:14:30.991Z,2.30
2023-04-17T17:16:58.357Z,2.03
2023-04-17T17:19:25.700Z,2.28
2023-04-17T17:21:55.036Z,2.40
2023-04-17T17:24:22.294Z,2.03
2023-04-17T17:26:49.431Z,2.22
2023-04-17T17:29:16.853Z,2.55
2023-04-17T17:31:44.305Z,2.92
2023-04-17T17:34:25.124Z,2.10
2023-04-17T17:36:53.070Z,2.33
2023-04-17T17:39:21.830Z,2.20
2023-04-17T17:41:49.619Z,2.50
2023-04-17T17:44:16.963Z,3.25
2023-04-17T17:46:44.367Z,2.58
2023-04-17T17:49:11.695Z,3.28
2023-04-17T17:51:38.876Z,2.38
2023-04-17T17:54:06.123Z,2.90
2023-04-17T17:56:33.280Z,2.40
2023-04-17T17:59:00.575Z,2.80
2023-04-17T18:01:27.753Z,2.28
2023-04-17T18:03:55.307Z,2.50
2023-04-17T18:06:22.836Z,2.20
2023-04-17T18:08:49.977Z,2.50
2023-04-17T18:11:17.128Z,2.22
2023-04-17T18:13:44.473Z,2.35
2023-04-17T18:16:11.676Z,2.20
2023-04-17T18:18:39.030Z,2.20
2023-04-17T18:21:09.524Z,2.40
2023-04-17T18:23:36.747Z,2.28
2023-04-17T18:26:04.347Z,2.60
2023-04-17T18:28:32.628Z,2.20
2023-04-17T18:31:00.008Z,2.65
2023-04-17T18:33:28.972Z,2.53
2023-04-17T18:35:56.317Z,2.15
2023-04-17T18:38:23.511Z,2.17
2023-04-17T18:40:59.167Z,2.67
2023-04-17T18:43:29.095Z,2.55
2023-04-17T18:45:56.253Z,3.20
2023-04-17T18:48:24.504Z,2.50
2023-04-17T18:50:51.963Z,2.50
2023-04-17T18:53:19.084Z,2.58
2023-04-17T18:55:46.220Z,2.83
2023-04-17T18:58:13.335Z,2.50
2023-04-17T19:00:40.568Z,3.20
2023-04-17T19:03:07.819Z,3.95
2023-04-17T19:05:35.134Z,6.15
2023-04-17T19:08:02.501Z,8.00
2023-04-17T19:10:30.016Z,8.98
2023-04-17T19:12:57.203Z,8.68
2023-04-17T19:15:24.684Z,8.48
2023-04-17T19:17:52.919Z,7.40
2023-04-17T19:20:20.209Z,8.05
2023-04-17T19:22:47.513Z,8.20
2023-04-17T19:25:14.671Z,7.15
2023-04-17T19:27:41.826Z,5.70
2023-04-17T19:30:11.138Z,5.82
2023-04-17T19:32:38.771Z,4.95
2023-04-17T19:35:07.251Z,4.68
2023-04-17T19:37:34.432Z,4.78
2023-04-17T19:40:06.368Z,5.30
2023-04-17T19:42:38.537Z,4.97
2023-04-17T19:45:07.259Z,4.57
2023-04-17T19:47:34.441Z,3.45
2023-04-17T19:50:01.637Z,3.65
2023-04-17T19:52:28.782Z,3.10
2023-04-17T19:54:55.980Z,3.13
2023-04-17T19:57:26.162Z,2.72
2023-04-17T19:59:53.297Z,3.28
2023-04-17T20:02:21.512Z,2.70
2023-04-17T20:07:15.816Z,3.35
2023-04-17T20:09:43.475Z,3.38
2023-04-17T20:12:10.728Z,3.28
2023-04-17T20:14:37.893Z,3.83
2023-04-17T20:17:05.171Z,4.43
2023-04-17T20:19:32.577Z,4.10
2023-04-17T20:21:59.677Z,4.55
2023-04-17T20:24:26.960Z,5.25
2023-04-17T20:26:55.551Z,4.55
2023-04-17T20:29:23.134Z,5.07
2023-04-17T20:31:50.549Z,4.85
2023-04-17T20:34:18.075Z,6.63
2023-04-17T20:36:45.524Z,7.38
2023-04-17T20:39:14.137Z,7.38
2023-04-17T20:41:41.863Z,7.63
2023-04-17T20:44:09.037Z,6.75
2023-04-17T20:46:36.211Z,5.65
2023-04-17T20:49:03.916Z,5.90
2023-04-17T20:51:32.340Z,5.38
2023-04-17T20:53:59.512Z,5.80
2023-04-17T20:56:26.713Z,5.20
2023-04-17T20:58:53.915Z,4.82
2023-04-17T21:01:21.286Z,4.53
2023-04-17T21:03:48.609Z,5.05
2023-04-17T21:06:15.992Z,5.88
2023-04-17T21:08:43.259Z,5.22
2023-04-17T21:11:10.790Z,5.15
2023-04-17T21:13:38.067Z,6.00
2023-04-17T21:16:09.598Z,6.13
2023-04-17T21:18:37.028Z,6.00
2023-04-17T21:21:04.486Z,6.15
2023-04-17T21:23:31.829Z,6.63
2023-04-17T21:25:59.140Z,5.57
2023-04-17T21:28:26.374Z,6.72
2023-04-17T21:30:53.666Z,6.72
2023-04-17T21:33:20.958Z,7.35
2023-04-17T21:35:48.254Z,6.45
2023-04-17T21:38:15.614Z,6.40
2023-04-17T21:40:50.989Z,6.78
2023-04-17T21:43:19.037Z,5.78
2023-04-17T21:45:46.660Z,6.60
2023-04-17T21:48:17.042Z,6.20
2023-04-17T21:50:44.368Z,7.07
2023-04-17T21:53:11.624Z,7.15
2023-04-17T21:55:39.058Z,6.60
2023-04-17T21:58:07.211Z,7.13
2023-04-17T22:00:34.450Z,5.60
2023-04-17T22:03:01.705Z,6.85
2023-04-17T22:05:29.127Z,6.65
2023-04-17T22:07:56.298Z,7.28
2023-04-17T22:10:24.386Z,6.95
2023-04-17T22:12:52.418Z,6.60
2023-04-17T22:15:19.768Z,6.10
2023-04-17T22:17:47.109Z,6.30
2023-04-17T22:20:14.358Z,6.40
2023-04-17T22:22:41.548Z,6.40
2023-04-17T22:25:09.735Z,6.20
2023-04-17T22:27:36.884Z,6.55
2023-04-17T22:30:06.064Z,5.88
2023-04-17T22:32:36.556Z,7.22
2023-04-17T22:35:04.347Z,6.35
2023-04-17T22:37:31.556Z,5.72
2023-04-17T22:39:58.735Z,6.18
2023-04-17T22:42:25.891Z,6.30
2023-04-17T22:44:53.177Z,6.43
2023-04-17T22:47:21.788Z,6.40
2023-04-17T22:49:49.382Z,7.13
2023-04-17T22:52:16.508Z,7.05
2023-04-17T22:54:43.698Z,7.20
2023-04-17T22:57:11.493Z,6.53
2023-04-17T22:59:40.515Z,7.20
2023-04-17T23:02:08.234Z,7.75
2023-04-17T23:04:35.662Z,7.70
2023-04-17T23:07:02.892Z,7.07
2023-04-17T23:09:30.178Z,7.55
2023-04-17T23:11:57.554Z,6.97
2023-04-17T23:14:26.127Z,6.55
2023-04-17T23:16:53.394Z,6.38
2023-04-17T23:19:22.333Z,4.97
2023-04-17T23:21:49.555Z,6.35
2023-04-17T23:24:16.669Z,6.18
2023-04-17T23:26:44.005Z,5.63
2023-04-17T23:29:11.154Z,6.38
2023-04-17T23:31:38.487Z,6.45
2023-04-17T23:34:05.829Z,6.78
2023-04-17T23:36:32.992Z,6.45
2023-04-17T23:39:00.190Z,6.18
2023-04-17T23:41:27.932Z,5.82
2023-04-17T23:43:58.064Z,5.95
2023-04-17T23:46:25.630Z,5.90
2023-04-17T23:48:52.865Z,6.25
2023-04-17T23:51:20.788Z,6.40
2023-04-17T23:53:49.082Z,5.82
2023-04-17T23:56:18.012Z,5.15
2023-04-17T23:58:45.200Z,6.32
